Buckley, Michigan
Current Conditions -  °F | °C
As of 2:27 AM on Saturday 25 Oct 2014 (Local Time) from KTVC Reporting Station
Overcast Overcast  
Wind Chill: 11°   Ceiling: 2900
Heat Index: 11°   Visibility: 10mi
Dew Point:   Wind: 5mph
Humidity: 83%   Direction: NA
Pressure: 29.78"   Gusts: NA
Location:  44.5°N, 85.68°W
Report Text: KTVC 250627Z AUTO VRB04KT 10SM BKN029 OVC034 11/08 A2978 RMK AO2 T01110083
Loading
Personal Weather Stations






























Interactive Weather Map
Tropical Storm Tracking
New forecast layout! Learn more

10-Day Weather Forecast

Advertisements
Track Severe Weather on mobile